Time;durP1;ratioP1;P1;durP2;ratioP2;P2;SDS_P1;SDS_P2;PMS_P1;PMS_P2;Temp;Humidity;BMP_temperature;BMP_pressure;BME280_temperature;BME280_humidity;BME280_pressure;Samples;Min_cycle;Max_cycle;Signal;HPM_P1;HPM_P2
2023/07/20 00:02:18;;;;;;;;;;;9.50;99.90;;;;;;5113767;28;20011;-68
2023/07/20 00:04:45;;;;;;;;;;;9.60;99.90;;;;;;5113656;28;19908;-68
2023/07/20 00:07:12;;;;;;;;;;;9.70;99.90;;;;;;5112564;28;19912;-67
2023/07/20 00:09:38;;;;;;;;;;;9.80;99.90;;;;;;5112438;28;19926;-68
2023/07/20 00:12:05;;;;;;;;;;;10.00;99.90;;;;;;5108533;28;19916;-67
2023/07/20 00:14:32;;;;;;;;;;;10.00;99.90;;;;;;5100524;28;19907;-65
2023/07/20 00:16:58;;;;;;;;;;;10.10;99.90;;;;;;5113105;28;19915;-66
2023/07/20 00:19:28;;;;;;;;;;;10.30;99.90;;;;;;5112258;28;19920;-66
2023/07/20 00:21:55;;;;;;;;;;;10.30;99.90;;;;;;5113073;28;19947;-66
2023/07/20 00:24:22;;;;;;;;;;;10.50;99.90;;;;;;5106972;28;19912;-67
2023/07/20 00:26:48;;;;;;;;;;;10.60;99.90;;;;;;5093260;28;20006;-66
2023/07/20 00:29:15;;;;;;;;;;;10.60;99.90;;;;;;5108220;28;19928;-67
2023/07/20 00:31:43;;;;;;;;;;;10.80;99.90;;;;;;5113471;28;19908;-67
2023/07/20 00:34:10;;;;;;;;;;;10.80;99.90;;;;;;5110220;28;20360;-68
2023/07/20 00:36:36;;;;;;;;;;;10.90;99.90;;;;;;5111545;28;20015;-68
2023/07/20 00:39:03;;;;;;;;;;;11.10;99.90;;;;;;5110620;28;19916;-69
2023/07/20 00:41:31;;;;;;;;;;;11.20;99.90;;;;;;5111924;28;19930;-66
2023/07/20 00:43:58;;;;;;;;;;;11.30;99.90;;;;;;5109505;28;21114;-64
2023/07/20 00:46:25;;;;;;;;;;;11.40;99.90;;;;;;5111184;28;19998;-65
2023/07/20 00:48:52;;;;;;;;;;;11.50;99.90;;;;;;5110748;28;19916;-66
2023/07/20 00:51:21;;;;;;;;;;;11.70;99.90;;;;;;5109846;28;20217;-66
2023/07/20 00:53:48;;;;;;;;;;;11.70;99.90;;;;;;5109408;28;19912;-64
2023/07/20 00:56:16;;;;;;;;;;;11.90;99.90;;;;;;5107692;28;19919;-68
2023/07/20 00:58:42;;;;;;;;;;;12.10;99.90;;;;;;5111021;28;19926;-65
2023/07/20 01:01:09;;;;;;;;;;;12.30;99.90;;;;;;5110100;28;19977;-65
2023/07/20 01:03:36;;;;;;;;;;;12.60;99.90;;;;;;5111372;28;19919;-63
2023/07/20 01:06:20;;;;;;;;;;;12.70;99.90;;;;;;5111457;28;20081;-67
2023/07/20 01:08:59;;;;;;;;;;;12.90;99.40;;;;;;5112830;28;19911;-66
2023/07/20 01:11:33;;;;;;;;;;;13.00;99.10;;;;;;5112214;28;19908;-69
2023/07/20 01:14:00;;;;;;;;;;;13.10;99.00;;;;;;5110211;28;19918;-68
2023/07/20 01:16:28;;;;;;;;;;;13.30;98.90;;;;;;5107943;28;20314;-66
2023/07/20 01:18:54;;;;;;;;;;;13.50;98.50;;;;;;5112363;28;19907;-68
2023/07/20 01:21:29;;;;;;;;;;;13.60;98.20;;;;;;5112107;28;19908;-68
2023/07/20 01:24:10;;;;;;;;;;;13.90;98.00;;;;;;5112128;28;19912;-67
2023/07/20 01:26:57;;;;;;;;;;;14.00;97.10;;;;;;5112575;28;19908;-68
2023/07/20 01:29:44;;;;;;;;;;;14.10;97.10;;;;;;5111895;28;20292;-66
2023/07/20 01:32:10;;;;;;;;;;;14.40;97.00;;;;;;5102918;28;20322;-67
2023/07/20 01:34:39;;;;;;;;;;;14.60;96.40;;;;;;5103753;28;19958;-67
2023/07/20 01:37:06;;;;;;;;;;;14.80;95.60;;;;;;5110896;28;20363;-67
2023/07/20 01:39:33;;;;;;;;;;;14.90;94.00;;;;;;5112388;28;20256;-68
2023/07/20 01:42:00;;;;;;;;;;;15.00;93.60;;;;;;5107839;28;20016;-67
2023/07/20 01:44:29;;;;;;;;;;;15.30;94.30;;;;;;5104746;28;19919;-66
2023/07/20 01:46:56;;;;;;;;;;;15.40;92.90;;;;;;5112120;28;20006;-68
2023/07/20 01:49:22;;;;;;;;;;;15.50;91.90;;;;;;5112328;28;20311;-67
2023/07/20 01:51:49;;;;;;;;;;;15.60;90.50;;;;;;5112140;28;19914;-66
2023/07/20 01:54:16;;;;;;;;;;;15.60;88.00;;;;;;5112400;28;19908;-64
2023/07/20 01:56:43;;;;;;;;;;;15.70;86.70;;;;;;5112501;28;19912;-67
2023/07/20 01:59:09;;;;;;;;;;;15.80;87.30;;;;;;5099480;28;20006;-67
2023/07/20 02:01:36;;;;;;;;;;;15.90;85.90;;;;;;5091726;28;20002;-66
2023/07/20 02:04:03;;;;;;;;;;;16.10;85.10;;;;;;5091507;28;19908;-64
2023/07/20 02:06:29;;;;;;;;;;;16.20;83.00;;;;;;5096289;28;20379;-66
2023/07/20 02:08:56;;;;;;;;;;;16.30;83.60;;;;;;5115376;28;20019;-67
2023/07/20 02:11:22;;;;;;;;;;;16.40;83.20;;;;;;5116339;28;19915;-65
2023/07/20 02:13:49;;;;;;;;;;;16.60;82.90;;;;;;5114692;28;19907;-66
2023/07/20 02:16:16;;;;;;;;;;;16.60;81.00;;;;;;5116038;28;20419;-68
2023/07/20 02:18:42;;;;;;;;;;;16.60;80.60;;;;;;5116145;28;19922;-67
2023/07/20 02:21:09;;;;;;;;;;;16.80;80.90;;;;;;5115246;28;19908;-66
2023/07/20 02:23:36;;;;;;;;;;;16.70;80.40;;;;;;5115934;28;20562;-62
2023/07/20 02:26:02;;;;;;;;;;;16.70;80.40;;;;;;5102153;28;19908;-64
2023/07/20 02:28:29;;;;;;;;;;;16.80;81.60;;;;;;5115921;28;19915;-63
2023/07/20 02:30:56;;;;;;;;;;;16.70;80.70;;;;;;5115417;28;20389;-66
2023/07/20 02:33:22;;;;;;;;;;;16.60;81.50;;;;;;5115336;28;19969;-65
2023/07/20 02:35:49;;;;;;;;;;;16.60;81.30;;;;;;5097810;28;19961;-65
2023/07/20 02:38:16;;;;;;;;;;;16.60;79.60;;;;;;5077041;28;19915;-67
2023/07/20 02:40:42;;;;;;;;;;;16.70;80.30;;;;;;5107973;28;19938;-67
2023/07/20 02:43:09;;;;;;;;;;;16.70;80.00;;;;;;5115315;28;19926;-67
2023/07/20 02:45:40;;;;;;;;;;;16.60;79.20;;;;;;5112046;28;20322;-66
2023/07/20 02:48:07;;;;;;;;;;;16.60;79.60;;;;;;5107206;28;20425;-67
2023/07/20 02:50:35;;;;;;;;;;;16.70;79.70;;;;;;5115142;28;19912;-66
2023/07/20 02:53:01;;;;;;;;;;;16.80;80.40;;;;;;5114115;28;20528;-67
2023/07/20 02:55:28;;;;;;;;;;;16.90;79.90;;;;;;5110980;28;19912;-66
2023/07/20 02:57:55;;;;;;;;;;;17.10;79.60;;;;;;5112294;28;20470;-65
2023/07/20 03:00:23;;;;;;;;;;;17.20;78.80;;;;;;5094615;28;20003;-66
2023/07/20 03:02:55;;;;;;;;;;;17.60;77.70;;;;;;5094867;28;19923;-65
2023/07/20 03:05:25;;;;;;;;;;;18.40;76.40;;;;;;5099417;28;20034;-66
2023/07/20 03:07:51;;;;;;;;;;;19.10;74.80;;;;;;5114717;28;19907;-69
2023/07/20 03:10:18;;;;;;;;;;;19.60;73.80;;;;;;5115096;28;19916;-66
2023/07/20 03:12:45;;;;;;;;;;;20.50;72.50;;;;;;5111198;27;19912;-69
2023/07/20 03:15:11;;;;;;;;;;;21.70;69.50;;;;;;5112863;27;19934;-65
2023/07/20 03:17:38;;;;;;;;;;;22.40;69.00;;;;;;5114481;28;19915;-64
2023/07/20 03:20:08;;;;;;;;;;;23.10;67.50;;;;;;5094862;28;19912;-65
2023/07/20 03:22:35;;;;;;;;;;;24.00;65.20;;;;;;5105237;28;19960;-68
2023/07/20 03:25:02;;;;;;;;;;;24.10;64.00;;;;;;5113333;28;19998;-66
2023/07/20 03:27:29;;;;;;;;;;;24.00;63.00;;;;;;5115026;28;20670;-65
2023/07/20 03:29:55;;;;;;;;;;;23.50;63.80;;;;;;5114768;28;20356;-67
2023/07/20 03:32:22;;;;;;;;;;;22.90;63.70;;;;;;5114817;28;19915;-65
2023/07/20 03:34:49;;;;;;;;;;;22.10;63.60;;;;;;5104456;28;19915;-67
2023/07/20 03:37:16;;;;;;;;;;;21.40;66.10;;;;;;5094714;28;19916;-68
2023/07/20 03:39:42;;;;;;;;;;;22.00;66.40;;;;;;5103161;28;20398;-66
2023/07/20 03:42:09;;;;;;;;;;;23.20;65.30;;;;;;5109733;28;19914;-65
2023/07/20 03:44:36;;;;;;;;;;;24.60;61.90;;;;;;5108419;28;20022;-66
2023/07/20 03:47:04;;;;;;;;;;;26.20;60.90;;;;;;5111553;28;19907;-66
2023/07/20 03:49:31;;;;;;;;;;;28.00;58.40;;;;;;5112253;28;19966;-66
2023/07/20 03:51:57;;;;;;;;;;;29.10;55.20;;;;;;5114350;28;20415;-66
2023/07/20 03:54:24;;;;;;;;;;;30.10;54.40;;;;;;5113167;28;20314;-67
2023/07/20 03:56:51;;;;;;;;;;;30.80;52.90;;;;;;5114224;28;19957;-65
2023/07/20 03:59:17;;;;;;;;;;;31.10;52.30;;;;;;5113287;28;19966;-65
2023/07/20 04:01:44;;;;;;;;;;;30.00;51.30;;;;;;5113420;28;20429;-64
2023/07/20 04:04:11;;;;;;;;;;;29.30;52.90;;;;;;5113850;28;20512;-68
2023/07/20 04:06:38;;;;;;;;;;;28.90;53.40;;;;;;5113992;28;19908;-66
2023/07/20 04:09:05;;;;;;;;;;;29.40;52.50;;;;;;5106163;28;19920;-66
2023/07/20 04:11:32;;;;;;;;;;;30.10;51.80;;;;;;5113559;28;19916;-67
2023/07/20 04:13:58;;;;;;;;;;;30.90;51.40;;;;;;5104638;28;19916;-67
2023/07/20 04:16:26;;;;;;;;;;;30.60;51.10;;;;;;5093191;28;19912;-67
2023/07/20 04:18:52;;;;;;;;;;;30.60;50.80;;;;;;5107380;28;19908;-68
2023/07/20 04:21:19;;;;;;;;;;;29.70;51.70;;;;;;5114146;28;19915;-64
2023/07/20 04:23:45;;;;;;;;;;;29.30;50.70;;;;;;5113803;28;20041;-66
2023/07/20 04:26:12;;;;;;;;;;;28.00;52.00;;;;;;5108387;28;19965;-66
2023/07/20 04:28:42;;;;;;;;;;;26.10;54.20;;;;;;5075343;28;20364;-64
2023/07/20 04:31:15;;;;;;;;;;;24.90;56.50;;;;;;5093376;28;19947;-63
2023/07/20 04:33:41;;;;;;;;;;;23.90;57.80;;;;;;5100824;28;19911;-66
2023/07/20 04:36:09;;;;;;;;;;;22.70;59.00;;;;;;5113082;28;20443;-63
2023/07/20 04:38:35;;;;;;;;;;;21.90;60.30;;;;;;5112403;28;19965;-64
2023/07/20 04:41:02;;;;;;;;;;;21.30;61.10;;;;;;5113442;28;19915;-67
2023/07/20 04:43:29;;;;;;;;;;;20.90;62.10;;;;;;5113272;28;19986;-66
2023/07/20 04:45:56;;;;;;;;;;;20.50;64.20;;;;;;5112873;28;19921;-67
2023/07/20 04:48:22;;;;;;;;;;;20.10;64.30;;;;;;5113162;28;20273;-65
2023/07/20 04:50:49;;;;;;;;;;;19.80;65.80;;;;;;5113456;28;20371;-65
2023/07/20 04:53:16;;;;;;;;;;;19.50;65.80;;;;;;5113393;28;19908;-65
2023/07/20 04:55:50;;;;;;;;;;;19.20;64.80;;;;;;5112717;28;19955;-67
2023/07/20 04:58:18;;;;;;;;;;;18.90;67.00;;;;;;5102194;28;19918;-66
2023/07/20 05:00:44;;;;;;;;;;;18.90;67.50;;;;;;5101128;28;19916;-67
2023/07/20 05:03:11;;;;;;;;;;;18.80;68.40;;;;;;5108644;28;20303;-66
2023/07/20 05:05:38;;;;;;;;;;;18.70;68.40;;;;;;5104486;28;19998;-67
2023/07/20 05:08:05;;;;;;;;;;;18.80;67.90;;;;;;5100294;28;19947;-65
2023/07/20 05:10:32;;;;;;;;;;;18.90;67.50;;;;;;5112757;28;20392;-66
2023/07/20 05:12:59;;;;;;;;;;;18.90;67.30;;;;;;5112224;28;19919;-67
2023/07/20 05:15:26;;;;;;;;;;;18.90;65.70;;;;;;5111052;28;19907;-67
2023/07/20 05:17:52;;;;;;;;;;;19.00;65.70;;;;;;5109969;28;19908;-67
2023/07/20 05:20:20;;;;;;;;;;;19.20;65.70;;;;;;5111042;28;19978;-66
2023/07/20 05:22:46;;;;;;;;;;;19.70;66.40;;;;;;5110058;28;19908;-67
2023/07/20 05:25:13;;;;;;;;;;;20.00;66.00;;;;;;5109229;28;19972;-67
2023/07/20 05:27:40;;;;;;;;;;;20.10;65.20;;;;;;5111182;28;19931;-66
2023/07/20 05:30:07;;;;;;;;;;;20.00;65.60;;;;;;5112232;28;20425;-68
2023/07/20 05:32:33;;;;;;;;;;;20.00;67.30;;;;;;5111882;28;20376;-68
2023/07/20 05:35:00;;;;;;;;;;;20.00;68.00;;;;;;5105481;28;19951;-66
2023/07/20 05:37:27;;;;;;;;;;;20.10;65.50;;;;;;5110524;28;19915;-68
2023/07/20 05:39:53;;;;;;;;;;;20.00;66.60;;;;;;5112417;28;19958;-68
2023/07/20 05:42:20;;;;;;;;;;;20.20;65.60;;;;;;5111293;28;20506;-67
2023/07/20 05:44:52;;;;;;;;;;;20.30;64.80;;;;;;5094750;28;19915;-66
2023/07/20 05:47:19;;;;;;;;;;;20.50;65.60;;;;;;5104966;28;19919;-68
2023/07/20 05:49:45;;;;;;;;;;;20.90;65.30;;;;;;5111123;28;20291;-65
2023/07/20 05:52:12;;;;;;;;;;;21.00;64.30;;;;;;5111593;28;19911;-70
2023/07/20 05:54:39;;;;;;;;;;;21.00;62.00;;;;;;5112147;28;19908;-68
2023/07/20 05:57:05;;;;;;;;;;;20.90;64.40;;;;;;5111803;28;19916;-67
2023/07/20 05:59:32;;;;;;;;;;;21.10;63.90;;;;;;5111475;28;19994;-69
2023/07/20 06:01:59;;;;;;;;;;;21.40;64.10;;;;;;5111393;28;19911;-67
2023/07/20 06:04:25;;;;;;;;;;;21.70;64.00;;;;;;5111433;28;20376;-66
2023/07/20 06:06:52;;;;;;;;;;;22.30;62.00;;;;;;5112084;28;19929;-67
2023/07/20 06:09:19;;;;;;;;;;;23.00;62.20;;;;;;5110818;28;19920;-66
2023/07/20 06:11:45;;;;;;;;;;;23.70;59.50;;;;;;5112268;28;19953;-68
2023/07/20 06:14:12;;;;;;;;;;;24.40;58.20;;;;;;5111365;28;20367;-67
2023/07/20 06:16:39;;;;;;;;;;;24.90;58.60;;;;;;5111179;28;19916;-68
2023/07/20 06:19:06;;;;;;;;;;;25.70;57.80;;;;;;5111952;28;19914;-67
2023/07/20 06:21:32;;;;;;;;;;;26.30;56.40;;;;;;5111343;28;20335;-65
2023/07/20 06:23:59;;;;;;;;;;;26.60;55.70;;;;;;5101617;28;19909;-66
2023/07/20 06:26:26;;;;;;;;;;;26.00;55.10;;;;;;5109831;28;19912;-66
2023/07/20 06:28:53;;;;;;;;;;;25.40;56.20;;;;;;5110454;28;20360;-68
2023/07/20 06:31:19;;;;;;;;;;;24.40;57.70;;;;;;5111597;28;19915;-67
2023/07/20 06:33:46;;;;;;;;;;;23.40;58.40;;;;;;5111136;28;19908;-68
2023/07/20 06:36:13;;;;;;;;;;;22.40;61.40;;;;;;5111067;28;20380;-67
2023/07/20 06:38:39;;;;;;;;;;;21.60;62.30;;;;;;5111696;28;19908;-68
2023/07/20 06:41:06;;;;;;;;;;;20.90;63.00;;;;;;5111255;28;19915;-67
2023/07/20 06:43:32;;;;;;;;;;;20.20;65.10;;;;;;5104783;28;20323;-68
2023/07/20 06:45:59;;;;;;;;;;;19.80;65.90;;;;;;5101679;28;19969;-66
2023/07/20 06:48:26;;;;;;;;;;;19.40;66.70;;;;;;5110076;28;19959;-67
2023/07/20 06:50:53;;;;;;;;;;;19.00;67.30;;;;;;5111195;28;20003;-69
2023/07/20 06:53:20;;;;;;;;;;;18.60;67.80;;;;;;5111707;28;20257;-67
2023/07/20 06:55:46;;;;;;;;;;;18.30;68.40;;;;;;5113698;28;19912;-68
2023/07/20 06:58:13;;;;;;;;;;;18.00;69.50;;;;;;5106301;28;20273;-67
2023/07/20 07:00:40;;;;;;;;;;;17.80;70.40;;;;;;5114651;28;19908;-68
2023/07/20 07:03:07;;;;;;;;;;;17.60;70.00;;;;;;5114810;28;20677;-64
2023/07/20 07:05:36;;;;;;;;;;;17.40;71.10;;;;;;5114825;28;19938;-66
2023/07/20 07:08:04;;;;;;;;;;;17.20;72.60;;;;;;5097218;28;19920;-68
2023/07/20 07:10:31;;;;;;;;;;;17.00;73.80;;;;;;5113761;28;19973;-67
2023/07/20 07:12:57;;;;;;;;;;;16.80;75.10;;;;;;5115362;28;19908;-68
2023/07/20 07:15:24;;;;;;;;;;;16.60;75.00;;;;;;5115036;28;19915;-66
2023/07/20 07:17:50;;;;;;;;;;;16.40;75.30;;;;;;5115518;28;19918;-66
2023/07/20 07:20:17;;;;;;;;;;;16.20;75.20;;;;;;5115207;28;20280;-63
2023/07/20 07:22:45;;;;;;;;;;;16.10;75.60;;;;;;5113662;28;19999;-66
2023/07/20 07:25:12;;;;;;;;;;;16.00;75.30;;;;;;5094262;28;20010;-66
2023/07/20 07:27:39;;;;;;;;;;;15.90;76.90;;;;;;5114818;28;19903;-67
2023/07/20 07:30:06;;;;;;;;;;;15.80;77.80;;;;;;5113349;28;19946;-66
2023/07/20 07:32:32;;;;;;;;;;;15.60;78.10;;;;;;5114563;28;20353;-67
2023/07/20 07:35:00;;;;;;;;;;;15.50;78.40;;;;;;5113417;28;20395;-66
2023/07/20 07:37:27;;;;;;;;;;;15.40;79.10;;;;;;5114230;28;20306;-67
2023/07/20 07:39:53;;;;;;;;;;;15.20;80.10;;;;;;5114396;28;19908;-66
2023/07/20 07:42:20;;;;;;;;;;;15.20;80.80;;;;;;5114210;28;20048;-64
2023/07/20 07:44:46;;;;;;;;;;;15.00;81.10;;;;;;5096646;28;19970;-66
2023/07/20 07:47:13;;;;;;;;;;;14.90;81.30;;;;;;5094088;28;19934;-66
2023/07/20 07:49:40;;;;;;;;;;;14.90;81.10;;;;;;5112493;28;19915;-67
2023/07/20 07:52:07;;;;;;;;;;;14.70;80.60;;;;;;5106023;28;20011;-67
2023/07/20 07:54:33;;;;;;;;;;;14.70;81.10;;;;;;5108953;28;19916;-67
2023/07/20 07:57:00;;;;;;;;;;;14.60;81.40;;;;;;5114330;28;19918;-66
2023/07/20 07:59:26;;;;;;;;;;;14.50;81.30;;;;;;5114141;28;20402;-65
2023/07/20 08:01:53;;;;;;;;;;;14.50;81.50;;;;;;5113288;28;19908;-65
2023/07/20 08:04:20;;;;;;;;;;;14.40;82.10;;;;;;5099289;28;20007;-66
2023/07/20 08:06:46;;;;;;;;;;;14.40;82.50;;;;;;5093648;28;19990;-66
2023/07/20 08:09:13;;;;;;;;;;;14.20;82.80;;;;;;5104037;28;19916;-67
2023/07/20 08:11:40;;;;;;;;;;;14.20;83.10;;;;;;5100174;28;20360;-66
2023/07/20 08:14:07;;;;;;;;;;;14.20;83.30;;;;;;5092785;28;19912;-66
2023/07/20 08:16:34;;;;;;;;;;;14.00;84.00;;;;;;5094744;28;19908;-66
2023/07/20 08:19:01;;;;;;;;;;;14.00;84.30;;;;;;5113569;28;20479;-67
2023/07/20 08:21:27;;;;;;;;;;;13.90;84.40;;;;;;5112978;28;19907;-67
2023/07/20 08:23:54;;;;;;;;;;;13.80;85.20;;;;;;5112691;28;19915;-66
2023/07/20 08:26:22;;;;;;;;;;;13.80;85.60;;;;;;5113613;28;20391;-65
2023/07/20 08:28:49;;;;;;;;;;;13.70;86.00;;;;;;5113575;28;20335;-66
2023/07/20 08:31:15;;;;;;;;;;;13.70;86.60;;;;;;5109718;28;19919;-66
2023/07/20 08:33:42;;;;;;;;;;;13.70;86.60;;;;;;5112675;28;20029;-67
2023/07/20 08:36:09;;;;;;;;;;;13.50;86.90;;;;;;5113152;28;19908;-67
2023/07/20 08:38:35;;;;;;;;;;;13.60;87.50;;;;;;5107720;28;19919;-66
2023/07/20 08:41:02;;;;;;;;;;;13.40;88.20;;;;;;5097195;28;20275;-65
2023/07/20 08:43:30;;;;;;;;;;;13.40;88.90;;;;;;5097885;27;19932;-67
2023/07/20 08:45:57;;;;;;;;;;;13.40;89.70;;;;;;5100287;28;19912;-66
2023/07/20 08:48:24;;;;;;;;;;;13.20;90.10;;;;;;5109954;27;19918;-65
2023/07/20 08:50:51;;;;;;;;;;;13.20;90.40;;;;;;5104271;27;20383;-66
2023/07/20 08:53:18;;;;;;;;;;;13.20;90.80;;;;;;5099519;28;20385;-67
2023/07/20 08:55:47;;;;;;;;;;;13.10;90.90;;;;;;5099062;28;20375;-69
2023/07/20 08:58:14;;;;;;;;;;;13.00;91.10;;;;;;5105715;28;19938;-65
2023/07/20 09:00:41;;;;;;;;;;;12.90;91.30;;;;;;5102159;28;19934;-67
2023/07/20 09:03:08;;;;;;;;;;;12.80;91.60;;;;;;5103212;28;20361;-65
2023/07/20 09:05:35;;;;;;;;;;;12.80;92.20;;;;;;5107190;28;20001;-67
2023/07/20 09:08:05;;;;;;;;;;;12.70;92.40;;;;;;5106271;28;19988;-68
2023/07/20 09:10:32;;;;;;;;;;;12.70;92.50;;;;;;5098533;28;19963;-66
2023/07/20 09:12:58;;;;;;;;;;;12.60;92.90;;;;;;5103859;28;19919;-65
2023/07/20 09:15:26;;;;;;;;;;;12.50;93.20;;;;;;5100788;28;20081;-68
2023/07/20 09:17:55;;;;;;;;;;;12.30;93.60;;;;;;5101777;28;20379;-66
2023/07/20 09:20:22;;;;;;;;;;;12.40;94.10;;;;;;5107733;28;19916;-66
2023/07/20 09:22:49;;;;;;;;;;;12.30;94.20;;;;;;5112613;28;19965;-66
2023/07/20 09:25:17;;;;;;;;;;;12.20;94.60;;;;;;5098879;28;20003;-67
2023/07/20 09:27:45;;;;;;;;;;;12.20;95.00;;;;;;5099991;28;19912;-67
2023/07/20 09:30:13;;;;;;;;;;;12.10;94.70;;;;;;5099310;28;19924;-66
2023/07/20 09:32:42;;;;;;;;;;;12.20;94.70;;;;;;5096855;28;19923;-65
2023/07/20 09:35:16;;;;;;;;;;;12.10;94.40;;;;;;5093031;28;20348;-67
2023/07/20 09:37:58;;;;;;;;;;;12.10;94.50;;;;;;5096189;28;19933;-65
2023/07/20 09:40:26;;;;;;;;;;;12.10;94.30;;;;;;5099271;28;19912;-67
2023/07/20 09:42:59;;;;;;;;;;;12.20;94.70;;;;;;5098634;28;19924;-69
2023/07/20 09:45:39;;;;;;;;;;;12.20;94.70;;;;;;5094995;28;19913;-67
2023/07/20 09:48:06;;;;;;;;;;;12.20;94.80;;;;;;5097723;28;19953;-69
2023/07/20 09:50:33;;;;;;;;;;;12.10;94.90;;;;;;5098956;28;20273;-65
2023/07/20 09:53:02;;;;;;;;;;;12.00;94.90;;;;;;5094869;28;19912;-66
2023/07/20 09:55:29;;;;;;;;;;;12.00;95.00;;;;;;5095613;28;20579;-66
2023/07/20 09:57:56;;;;;;;;;;;11.90;95.40;;;;;;5099625;28;19912;-70
2023/07/20 10:00:23;;;;;;;;;;;11.90;95.40;;;;;;5094199;28;20023;-68
2023/07/20 10:02:51;;;;;;;;;;;11.80;95.70;;;;;;5097334;28;20461;-67
2023/07/20 10:05:18;;;;;;;;;;;11.80;95.70;;;;;;5103227;28;19924;-66
2023/07/20 10:07:48;;;;;;;;;;;11.80;95.70;;;;;;5106959;28;19934;-65
2023/07/20 10:10:17;;;;;;;;;;;11.70;95.60;;;;;;5105300;28;19920;-67
2023/07/20 10:12:45;;;;;;;;;;;11.60;95.80;;;;;;5095389;28;19998;-66
2023/07/20 10:15:14;;;;;;;;;;;11.50;96.00;;;;;;5105053;28;19961;-67
2023/07/20 10:17:50;;;;;;;;;;;11.50;96.50;;;;;;5102460;28;19919;-66
2023/07/20 10:20:18;;;;;;;;;;;11.50;96.70;;;;;;5099514;28;19916;-65
2023/07/20 10:22:45;;;;;;;;;;;11.40;97.10;;;;;;5101288;28;19978;-64
2023/07/20 10:25:12;;;;;;;;;;;11.30;97.20;;;;;;5102807;28;19920;-66
2023/07/20 10:27:39;;;;;;;;;;;11.30;97.40;;;;;;5100920;28;19912;-68
2023/07/20 10:30:06;;;;;;;;;;;11.10;97.70;;;;;;5096243;28;19924;-69
2023/07/20 10:32:33;;;;;;;;;;;11.10;98.10;;;;;;5096203;27;19956;-67
2023/07/20 10:35:00;;;;;;;;;;;11.10;98.70;;;;;;5109382;28;19908;-66
2023/07/20 10:37:44;;;;;;;;;;;11.20;98.70;;;;;;5105130;28;19912;-68
2023/07/20 10:40:30;;;;;;;;;;;11.10;98.80;;;;;;5106298;28;20401;-67
2023/07/20 10:43:04;;;;;;;;;;;11.00;99.10;;;;;;5095810;28;20007;-67
2023/07/20 10:45:37;;;;;;;;;;;11.00;99.10;;;;;;5099218;28;19951;-68
2023/07/20 10:48:05;;;;;;;;;;;10.90;98.40;;;;;;5102019;27;19958;-66
2023/07/20 10:50:36;;;;;;;;;;;10.90;98.00;;;;;;5112626;28;20360;-65
2023/07/20 10:53:16;;;;;;;;;;;11.00;98.20;;;;;;5094489;28;19935;-67
2023/07/20 10:55:43;;;;;;;;;;;11.00;98.20;;;;;;5104442;28;19912;-66
2023/07/20 10:58:11;;;;;;;;;;;11.00;98.00;;;;;;5114811;28;19912;-67
2023/07/20 11:00:56;;;;;;;;;;;11.00;97.70;;;;;;5110752;28;19912;-67
2023/07/20 11:03:29;;;;;;;;;;;11.00;97.60;;;;;;5100896;28;20569;-65
2023/07/20 11:05:57;;;;;;;;;;;11.00;97.20;;;;;;5111941;28;20361;-65
2023/07/20 11:08:41;;;;;;;;;;;11.00;97.30;;;;;;5102772;28;19998;-68
2023/07/20 11:11:27;;;;;;;;;;;11.10;96.80;;;;;;5105151;27;20026;-65
2023/07/20 11:14:00;;;;;;;;;;;11.00;97.30;;;;;;5098005;28;19927;-66
2023/07/20 11:16:54;;;;;;;;;;;11.00;97.00;;;;;;5100675;28;19912;-66
2023/07/20 11:19:23;;;;;;;;;;;11.00;97.20;;;;;;5090633;28;19946;-67
2023/07/20 11:21:57;;;;;;;;;;;11.00;97.30;;;;;;5110003;28;20428;-66
2023/07/20 11:24:24;;;;;;;;;;;11.00;97.70;;;;;;5112980;28;19912;-67
2023/07/20 11:26:51;;;;;;;;;;;11.00;97.90;;;;;;5113887;28;19916;-66
2023/07/20 11:29:19;;;;;;;;;;;10.90;98.00;;;;;;5095419;28;20384;-67
2023/07/20 11:31:47;;;;;;;;;;;10.80;97.70;;;;;;5114779;28;20006;-64
2023/07/20 11:34:17;;;;;;;;;;;10.80;97.90;;;;;;5114476;28;19907;-67
2023/07/20 11:36:46;;;;;;;;;;;10.80;98.40;;;;;;5112943;28;20356;-66
2023/07/20 11:39:13;;;;;;;;;;;10.70;98.60;;;;;;5107185;28;19912;-66
2023/07/20 11:41:44;;;;;;;;;;;10.70;98.80;;;;;;5109250;28;20296;-65
2023/07/20 11:44:15;;;;;;;;;;;10.70;98.80;;;;;;5113602;28;20089;-67
2023/07/20 11:46:42;;;;;;;;;;;10.60;99.00;;;;;;5114641;28;20095;-67
2023/07/20 11:49:09;;;;;;;;;;;10.60;99.10;;;;;;5108426;28;20020;-66
2023/07/20 11:51:37;;;;;;;;;;;10.50;99.10;;;;;;5114530;28;20318;-69
2023/07/20 11:54:05;;;;;;;;;;;10.50;99.10;;;;;;5114831;28;19976;-69
2023/07/20 11:56:32;;;;;;;;;;;10.40;99.10;;;;;;5115183;28;19934;-65
2023/07/20 11:59:00;;;;;;;;;;;10.40;99.20;;;;;;5115014;28;19908;-67
2023/07/20 12:01:34;;;;;;;;;;;10.30;99.10;;;;;;5114329;28;19915;-66
2023/07/20 12:04:04;;;;;;;;;;;10.30;98.90;;;;;;5114688;28;20359;-68
2023/07/20 12:06:32;;;;;;;;;;;10.40;99.30;;;;;;5114435;28;19918;-67
2023/07/20 12:09:00;;;;;;;;;;;10.30;99.20;;;;;;5100690;28;20368;-67
2023/07/20 12:11:36;;;;;;;;;;;10.30;99.10;;;;;;5094043;28;20003;-66
2023/07/20 12:14:03;;;;;;;;;;;10.20;99.10;;;;;;5105633;28;20056;-67
2023/07/20 12:16:30;;;;;;;;;;;10.30;99.30;;;;;;5096468;28;19915;-65
2023/07/20 12:19:01;;;;;;;;;;;10.40;99.40;;;;;;5112001;28;19908;-68
2023/07/20 12:21:28;;;;;;;;;;;10.30;99.40;;;;;;5093599;28;19912;-66
2023/07/20 12:23:56;;;;;;;;;;;10.20;99.60;;;;;;5093566;28;19912;-67
2023/07/20 12:26:23;;;;;;;;;;;10.20;99.40;;;;;;5093548;28;19935;-66
2023/07/20 12:28:50;;;;;;;;;;;10.20;99.40;;;;;;5094047;28;20357;-68
2023/07/20 12:31:17;;;;;;;;;;;10.20;99.50;;;;;;5094012;28;20405;-66
2023/07/20 12:33:44;;;;;;;;;;;10.20;99.50;;;;;;5076008;28;20272;-66
2023/07/20 12:36:10;;;;;;;;;;;10.10;99.80;;;;;;5093969;28;19909;-68
2023/07/20 12:38:37;;;;;;;;;;;10.10;99.90;;;;;;5103541;28;20426;-68
2023/07/20 12:41:04;;;;;;;;;;;10.10;99.70;;;;;;5113793;28;19912;-65
2023/07/20 12:43:31;;;;;;;;;;;10.00;99.90;;;;;;5114213;28;19919;-65
2023/07/20 12:45:58;;;;;;;;;;;10.00;99.90;;;;;;5114235;28;19912;-67
2023/07/20 12:48:25;;;;;;;;;;;10.00;99.90;;;;;;5114161;28;19908;-66
2023/07/20 12:50:52;;;;;;;;;;;10.00;99.90;;;;;;5113284;28;19916;-67
2023/07/20 12:53:18;;;;;;;;;;;10.00;99.90;;;;;;5112951;28;19915;-66
2023/07/20 12:55:45;;;;;;;;;;;10.00;99.80;;;;;;5105631;28;19937;-65
2023/07/20 12:58:13;;;;;;;;;;;10.00;99.90;;;;;;5115035;28;19911;-65
2023/07/20 13:00:39;;;;;;;;;;;9.90;99.90;;;;;;5113804;28;19908;-68
2023/07/20 13:03:08;;;;;;;;;;;10.00;99.90;;;;;;5115112;28;19969;-65
2023/07/20 13:05:35;;;;;;;;;;;10.00;99.90;;;;;;5114835;28;19915;-67
2023/07/20 13:08:05;;;;;;;;;;;9.90;99.90;;;;;;5113466;28;19954;-67
2023/07/20 13:10:32;;;;;;;;;;;10.00;99.70;;;;;;5112723;28;20007;-68
2023/07/20 13:13:00;;;;;;;;;;;10.00;98.90;;;;;;5113846;28;20292;-67
2023/07/20 13:15:31;;;;;;;;;;;10.00;99.00;;;;;;5113608;28;19961;-69
2023/07/20 13:17:58;;;;;;;;;;;10.00;98.40;;;;;;5113688;28;19914;-68
2023/07/20 13:20:26;;;;;;;;;;;10.10;98.40;;;;;;5113245;28;19960;-66
2023/07/20 13:22:52;;;;;;;;;;;10.10;98.70;;;;;;5113408;28;19915;-67
2023/07/20 13:25:19;;;;;;;;;;;10.20;99.00;;;;;;5109442;28;19915;-68
2023/07/20 13:27:45;;;;;;;;;;;10.10;99.20;;;;;;5111963;28;19912;-65
2023/07/20 13:30:16;;;;;;;;;;;10.10;98.70;;;;;;5112632;28;19915;-66
2023/07/20 13:32:46;;;;;;;;;;;10.00;98.80;;;;;;5112786;28;19915;-66
2023/07/20 13:35:12;;;;;;;;;;;10.10;98.60;;;;;;5098851;28;19915;-66
2023/07/20 13:37:39;;;;;;;;;;;10.10;98.70;;;;;;5112678;28;19911;-66
2023/07/20 13:40:06;;;;;;;;;;;10.10;99.10;;;;;;5112686;28;19908;-67
2023/07/20 13:42:33;;;;;;;;;;;10.00;99.00;;;;;;5112587;28;19981;-65
2023/07/20 13:44:59;;;;;;;;;;;10.10;98.90;;;;;;5112163;28;19908;-66
2023/07/20 13:47:27;;;;;;;;;;;10.00;98.70;;;;;;5112605;28;19907;-65
2023/07/20 13:49:53;;;;;;;;;;;10.10;98.60;;;;;;5112366;28;19916;-68
2023/07/20 13:52:20;;;;;;;;;;;10.00;98.80;;;;;;5112723;28;19908;-68
2023/07/20 13:54:47;;;;;;;;;;;10.00;98.40;;;;;;5111889;28;19912;-67
2023/07/20 13:57:14;;;;;;;;;;;10.00;98.90;;;;;;5112473;28;19908;-66
2023/07/20 13:59:41;;;;;;;;;;;10.00;99.10;;;;;;5112168;28;19920;-67
2023/07/20 14:02:08;;;;;;;;;;;10.00;99.10;;;;;;5112466;28;19908;-65
2023/07/20 14:04:35;;;;;;;;;;;10.00;99.00;;;;;;5112300;28;20364;-69
2023/07/20 14:07:02;;;;;;;;;;;10.00;99.10;;;;;;5112732;28;19922;-66
2023/07/20 14:09:29;;;;;;;;;;;10.00;99.10;;;;;;5112419;28;19927;-67
2023/07/20 14:11:55;;;;;;;;;;;10.00;98.90;;;;;;5112188;28;20409;-66
2023/07/20 14:14:22;;;;;;;;;;;9.90;98.70;;;;;;5112937;28;19953;-66
2023/07/20 14:16:48;;;;;;;;;;;9.90;98.20;;;;;;5112873;28;19961;-66
2023/07/20 14:19:15;;;;;;;;;;;9.80;97.60;;;;;;5112499;28;20580;-67
2023/07/20 14:21:42;;;;;;;;;;;9.90;97.50;;;;;;5112347;28;19955;-68
2023/07/20 14:24:08;;;;;;;;;;;9.90;97.20;;;;;;5112362;28;19951;-67